createdAt,value
2022-09-09T00:00:25.914Z,99.90
2022-09-09T00:03:13.728Z,99.90
2022-09-09T00:05:52.359Z,99.90
2022-09-09T00:08:32.241Z,99.90
2022-09-09T00:11:05.716Z,99.90
2022-09-09T00:13:41.556Z,99.90
2022-09-09T00:16:25.228Z,99.90
2022-09-09T00:19:22.106Z,99.90
2022-09-09T00:22:14.278Z,99.90
2022-09-09T00:24:56.819Z,99.90
2022-09-09T00:27:33.742Z,99.90
2022-09-09T00:30:05.265Z,99.90
2022-09-09T00:32:36.667Z,99.90
2022-09-09T00:35:19.065Z,99.90
2022-09-09T00:37:49.984Z,99.90
2022-09-09T00:40:33.704Z,99.90
2022-09-09T00:43:08.397Z,99.90
2022-09-09T00:46:07.625Z,99.90
2022-09-09T00:49:05.319Z,99.90
2022-09-09T00:51:54.872Z,99.90
2022-09-09T00:54:33.989Z,99.90
2022-09-09T00:57:17.221Z,99.90
2022-09-09T00:59:48.254Z,99.90
2022-09-09T01:02:19.701Z,99.90
2022-09-09T01:04:46.758Z,99.90
2022-09-09T01:07:20.462Z,99.90
2022-09-09T01:10:22.207Z,99.90
2022-09-09T01:12:52.586Z,99.90
2022-09-09T01:15:25.662Z,99.90
2022-09-09T01:18:04.554Z,99.90
2022-09-09T01:20:48.645Z,99.90
2022-09-09T01:23:29.862Z,99.90
2022-09-09T01:26:27.138Z,99.90
2022-09-09T01:28:54.862Z,99.90
2022-09-09T01:31:35.772Z,99.90
2022-09-09T01:34:02.904Z,99.90
2022-09-09T01:36:39.188Z,99.90
2022-09-09T01:39:06.230Z,99.90
2022-09-09T01:41:33.275Z,99.90
2022-09-09T01:44:00.103Z,99.90
2022-09-09T01:46:28.055Z,99.90
2022-09-09T01:48:56.365Z,99.90
2022-09-09T01:51:24.296Z,99.90
2022-09-09T01:53:51.348Z,99.90
2022-09-09T01:56:41.100Z,99.90
2022-09-09T01:59:13.952Z,99.90
2022-09-09T02:01:49.704Z,99.90
2022-09-09T02:04:44.937Z,99.90
2022-09-09T02:07:32.962Z,99.90
2022-09-09T02:10:21.773Z,99.90
2022-09-09T02:12:58.531Z,99.90
2022-09-09T02:15:33.456Z,99.90
2022-09-09T02:18:04.245Z,99.90
2022-09-09T02:20:35.161Z,99.90
2022-09-09T02:23:03.727Z,99.90
2022-09-09T02:25:30.978Z,99.90
2022-09-09T02:28:01.239Z,99.90
2022-09-09T02:30:31.807Z,99.90
2022-09-09T02:33:00.452Z,99.90
2022-09-09T02:35:31.059Z,99.90
2022-09-09T02:38:02.512Z,99.90
2022-09-09T02:40:29.464Z,99.90
2022-09-09T02:42:56.642Z,99.90
2022-09-09T02:45:29.553Z,99.90
2022-09-09T02:48:02.647Z,99.90
2022-09-09T02:50:33.191Z,99.90
2022-09-09T02:53:18.619Z,99.90
2022-09-09T02:55:49.661Z,99.90
2022-09-09T02:58:19.184Z,99.90
2022-09-09T03:00:51.646Z,99.90
2022-09-09T03:03:20.596Z,99.90
2022-09-09T03:05:47.834Z,99.90
2022-09-09T03:08:15.154Z,99.90
2022-09-09T03:10:42.178Z,99.90
2022-09-09T03:13:09.195Z,99.90
2022-09-09T03:15:36.752Z,99.90
2022-09-09T03:18:03.672Z,99.90
2022-09-09T03:20:31.200Z,99.90
2022-09-09T03:22:58.604Z,99.90
2022-09-09T03:25:25.684Z,99.90
2022-09-09T03:27:56.002Z,99.90
2022-09-09T03:30:24.005Z,99.90
2022-09-09T03:32:50.910Z,99.90
2022-09-09T03:35:17.981Z,99.90
2022-09-09T03:37:44.879Z,99.90
2022-09-09T03:40:12.217Z,99.90
2022-09-09T03:42:39.895Z,99.90
2022-09-09T03:45:10.049Z,99.90
2022-09-09T03:47:36.969Z,99.90
2022-09-09T03:50:05.717Z,99.90
2022-09-09T03:52:32.511Z,99.90
2022-09-09T03:54:59.434Z,99.90
2022-09-09T03:57:26.201Z,99.90
2022-09-09T03:59:52.944Z,99.90
2022-09-09T04:02:19.883Z,99.90
2022-09-09T04:04:46.776Z,99.90
2022-09-09T04:07:13.785Z,99.90
2022-09-09T04:09:40.637Z,99.90
2022-09-09T04:12:07.759Z,99.90
2022-09-09T04:14:34.611Z,99.90
2022-09-09T04:17:01.467Z,99.90
2022-09-09T04:19:28.287Z,99.90
2022-09-09T04:21:55.063Z,99.90
2022-09-09T04:24:22.580Z,99.90
2022-09-09T04:26:49.344Z,99.90
2022-09-09T04:29:16.108Z,99.90
2022-09-09T04:31:43.182Z,99.90
2022-09-09T04:34:10.563Z,99.90
2022-09-09T04:36:37.458Z,99.90
2022-09-09T04:39:04.318Z,99.90
2022-09-09T04:41:32.399Z,99.90
2022-09-09T04:44:00.763Z,99.90
2022-09-09T04:46:27.891Z,99.90
2022-09-09T04:48:54.860Z,99.90
2022-09-09T04:51:21.677Z,99.90
2022-09-09T04:53:49.589Z,99.90
2022-09-09T04:56:17.793Z,99.90
2022-09-09T04:58:45.326Z,99.90
2022-09-09T05:01:13.572Z,99.90
2022-09-09T05:03:40.480Z,99.90
2022-09-09T05:06:15.981Z,99.90
2022-09-09T05:08:44.451Z,99.90
2022-09-09T05:11:28.662Z,99.90
2022-09-09T05:13:56.088Z,99.90
2022-09-09T05:16:23.905Z,99.90
2022-09-09T05:18:52.282Z,99.90
2022-09-09T05:21:21.074Z,99.90
2022-09-09T05:23:48.358Z,99.90
2022-09-09T05:26:18.095Z,99.90
2022-09-09T05:28:45.795Z,99.90
2022-09-09T05:31:13.864Z,99.90
2022-09-09T05:33:44.003Z,99.90
2022-09-09T05:36:16.313Z,99.90
2022-09-09T05:38:43.558Z,99.90
2022-09-09T05:41:12.268Z,99.90
2022-09-09T05:43:39.785Z,99.90
2022-09-09T05:46:09.156Z,99.90
2022-09-09T05:48:38.329Z,99.90
2022-09-09T05:51:08.047Z,99.90
2022-09-09T05:53:38.372Z,99.90
2022-09-09T05:56:18.632Z,99.90
2022-09-09T05:58:47.959Z,99.90
2022-09-09T06:01:20.418Z,99.90
2022-09-09T06:03:48.356Z,99.90
2022-09-09T06:06:18.678Z,99.90
2022-09-09T06:08:46.300Z,99.90
2022-09-09T06:11:16.672Z,99.90
2022-09-09T06:13:43.975Z,99.90
2022-09-09T06:16:15.912Z,99.90
2022-09-09T06:18:44.549Z,99.90
2022-09-09T06:21:32.206Z,99.90
2022-09-09T06:24:01.256Z,99.90
2022-09-09T06:26:33.781Z,99.90
2022-09-09T06:29:01.500Z,99.90
2022-09-09T06:31:31.594Z,99.90
2022-09-09T06:33:59.843Z,99.90
2022-09-09T06:36:32.356Z,99.90
2022-09-09T06:38:59.704Z,99.90
2022-09-09T06:41:28.733Z,99.90
2022-09-09T06:43:56.550Z,99.90
2022-09-09T06:46:29.020Z,99.90
2022-09-09T06:48:58.366Z,99.90
2022-09-09T06:51:26.980Z,99.90
2022-09-09T06:53:57.037Z,99.90
2022-09-09T06:56:25.153Z,99.90
2022-09-09T06:58:53.350Z,99.90
2022-09-09T07:01:26.691Z,99.90
2022-09-09T07:03:55.553Z,99.90
2022-09-09T07:06:31.291Z,99.90
2022-09-09T07:09:00.331Z,99.90
2022-09-09T07:11:30.003Z,99.90
2022-09-09T07:13:58.608Z,99.90
2022-09-09T07:16:25.993Z,99.90
2022-09-09T07:18:53.942Z,99.90
2022-09-09T07:21:22.039Z,99.90
2022-09-09T07:23:49.151Z,99.90
2022-09-09T07:26:22.261Z,99.90
2022-09-09T07:28:49.626Z,99.90
2022-09-09T07:31:21.982Z,99.90
2022-09-09T07:33:49.413Z,99.90
2022-09-09T07:36:19.196Z,99.90
2022-09-09T07:38:48.385Z,99.90
2022-09-09T07:41:19.078Z,99.90
2022-09-09T07:43:48.694Z,99.90
2022-09-09T07:46:17.579Z,99.90
2022-09-09T07:48:55.890Z,99.90
2022-09-09T07:51:44.391Z,99.90
2022-09-09T07:54:14.414Z,99.90
2022-09-09T07:56:42.143Z,99.90
2022-09-09T07:59:10.544Z,99.90
2022-09-09T08:01:46.504Z,99.90
2022-09-09T08:04:17.535Z,99.90
2022-09-09T08:06:47.289Z,99.90
2022-09-09T08:09:15.021Z,99.90
2022-09-09T08:11:42.297Z,99.90
2022-09-09T08:14:10.387Z,99.90
2022-09-09T08:16:41.377Z,99.90
2022-09-09T08:19:08.874Z,99.90
2022-09-09T08:21:38.472Z,99.90
2022-09-09T08:24:08.942Z,99.90
2022-09-09T08:26:38.686Z,99.90
2022-09-09T08:29:07.660Z,99.90
2022-09-09T08:31:39.949Z,99.90
2022-09-09T08:34:08.317Z,99.90
2022-09-09T08:36:41.584Z,99.90
2022-09-09T08:39:09.936Z,99.90
2022-09-09T08:41:55.743Z,99.90
2022-09-09T08:44:48.829Z,99.90
2022-09-09T08:48:03.777Z,99.90
2022-09-09T08:50:41.820Z,99.30
2022-09-09T08:53:21.135Z,96.10
2022-09-09T08:56:00.273Z,87.60
2022-09-09T08:58:33.164Z,80.80
2022-09-09T09:01:03.017Z,70.50
2022-09-09T09:03:55.003Z,62.80
2022-09-09T09:06:24.908Z,60.60
2022-09-09T09:09:01.413Z,57.10
2022-09-09T09:11:28.245Z,56.80
2022-09-09T09:14:04.415Z,56.50
2022-09-09T09:17:04.787Z,56.20
2022-09-09T09:19:35.689Z,54.90
2022-09-09T09:22:37.409Z,54.50
2022-09-09T09:25:19.836Z,52.90
2022-09-09T09:27:56.100Z,54.70
2022-09-09T09:30:30.369Z,53.60
2022-09-09T09:33:09.850Z,53.70
2022-09-09T09:35:41.616Z,54.60
2022-09-09T09:41:19.271Z,57.50
2022-09-09T09:43:54.916Z,59.20
2022-09-09T09:46:28.315Z,59.80
2022-09-09T09:49:10.761Z,62.40
2022-09-09T09:51:37.689Z,64.70
2022-09-09T09:54:29.905Z,70.10
2022-09-09T09:56:57.442Z,65.20
2022-09-09T09:59:39.101Z,59.80
2022-09-09T10:02:26.634Z,57.90
2022-09-09T10:05:07.311Z,58.60
2022-09-09T10:07:35.268Z,58.60
2022-09-09T10:10:02.387Z,56.40
2022-09-09T10:12:38.969Z,55.80
2022-09-09T10:15:34.259Z,52.40
2022-09-09T10:18:26.546Z,52.20
2022-09-09T10:21:41.739Z,50.90
2022-09-09T10:24:14.613Z,49.30
2022-09-09T10:26:49.612Z,49.90
2022-09-09T10:29:23.349Z,49.30
2022-09-09T10:32:13.445Z,49.80
2022-09-09T10:34:55.663Z,48.30
2022-09-09T10:37:53.027Z,46.00
2022-09-09T10:40:27.644Z,46.50
2022-09-09T10:43:20.260Z,46.80
2022-09-09T10:46:05.628Z,47.50
2022-09-09T10:49:08.221Z,49.10
2022-09-09T10:51:37.885Z,49.40
2022-09-09T10:54:22.329Z,52.50
2022-09-09T10:56:57.671Z,55.00
2022-09-09T10:59:30.412Z,56.60
2022-09-09T11:02:13.737Z,55.90
2022-09-09T11:05:15.424Z,53.40
2022-09-09T11:07:48.888Z,52.90
2022-09-09T11:10:42.969Z,51.70
2022-09-09T11:13:49.746Z,50.70
2022-09-09T11:16:49.467Z,50.30
2022-09-09T11:19:35.354Z,49.80
2022-09-09T11:22:37.685Z,49.10
2022-09-09T11:25:16.849Z,49.60
2022-09-09T11:27:46.410Z,47.20
2022-09-09T11:31:02.823Z,48.70
2022-09-09T11:33:35.462Z,52.30
2022-09-09T11:36:27.138Z,53.50
2022-09-09T11:39:02.367Z,54.10
2022-09-09T11:41:37.578Z,52.30
2022-09-09T11:44:13.493Z,54.60
2022-09-09T11:46:42.534Z,55.00
2022-09-09T11:49:27.756Z,54.20
2022-09-09T11:51:55.823Z,56.00
2022-09-09T11:54:33.181Z,57.80
2022-09-09T11:57:00.626Z,60.90
2022-09-09T11:59:34.555Z,59.80
2022-09-09T12:02:25.762Z,61.40
2022-09-09T12:05:15.097Z,62.30
2022-09-09T12:07:48.837Z,62.40
2022-09-09T12:10:33.503Z,62.80
2022-09-09T12:13:20.908Z,61.70
2022-09-09T12:15:50.765Z,63.50
2022-09-09T12:18:25.081Z,64.30
2022-09-09T12:21:08.812Z,63.80
2022-09-09T12:23:52.989Z,63.70
2022-09-09T12:26:22.855Z,64.20
2022-09-09T12:28:58.619Z,65.30
2022-09-09T12:31:43.917Z,66.20
2022-09-09T12:34:17.563Z,67.30
2022-09-09T12:36:53.211Z,69.20
2022-09-09T12:39:58.923Z,73.30
2022-09-09T12:42:27.020Z,77.80
2022-09-09T12:44:53.805Z,81.60
2022-09-09T12:47:30.123Z,81.70
2022-09-09T12:49:57.562Z,84.60
2022-09-09T12:52:36.645Z,86.20
2022-09-09T12:55:07.245Z,90.80
2022-09-09T12:57:48.128Z,85.40
2022-09-09T13:00:20.571Z,90.40
2022-09-09T13:02:56.206Z,87.70
2022-09-09T13:05:29.925Z,83.60
2022-09-09T13:08:06.137Z,82.60
2022-09-09T13:10:52.884Z,77.70
2022-09-09T13:13:52.621Z,74.30
2022-09-09T13:16:33.376Z,74.60
2022-09-09T13:19:07.751Z,71.90
2022-09-09T13:21:41.220Z,70.50
2022-09-09T13:24:28.490Z,71.10
2022-09-09T13:26:57.562Z,68.20
2022-09-09T13:29:24.537Z,67.00
2022-09-09T13:31:58.199Z,64.40
2022-09-09T13:34:32.706Z,63.60
2022-09-09T13:37:09.473Z,62.40
2022-09-09T13:39:37.954Z,61.00
2022-09-09T13:42:05.571Z,61.70
2022-09-09T13:44:37.836Z,61.00
2022-09-09T13:47:21.007Z,61.50
2022-09-09T13:49:48.147Z,64.10
2022-09-09T13:52:18.160Z,63.60
2022-09-09T13:54:52.570Z,63.20
2022-09-09T13:57:25.509Z,58.60
2022-09-09T14:00:04.645Z,58.50
2022-09-09T14:02:32.626Z,58.30
2022-09-09T14:04:59.463Z,58.30
2022-09-09T14:07:26.363Z,60.10
2022-09-09T14:09:53.535Z,59.70
2022-09-09T14:12:21.152Z,60.20
2022-09-09T14:14:48.016Z,62.40
2022-09-09T14:17:15.802Z,62.40
2022-09-09T14:19:43.572Z,62.50
2022-09-09T14:22:10.420Z,63.10
2022-09-09T14:24:37.247Z,63.40
2022-09-09T14:27:04.064Z,64.80
2022-09-09T14:29:30.873Z,65.30
2022-09-09T14:31:57.636Z,66.30
2022-09-09T14:34:25.436Z,66.10
2022-09-09T14:36:52.443Z,65.00
2022-09-09T14:39:19.363Z,66.70
2022-09-09T14:41:46.803Z,66.50
2022-09-09T14:44:13.602Z,65.80
2022-09-09T14:46:40.482Z,67.20
2022-09-09T14:49:07.323Z,67.30
2022-09-09T14:51:34.141Z,67.30
2022-09-09T14:54:02.982Z,68.40
2022-09-09T14:56:32.353Z,68.60
2022-09-09T14:59:01.866Z,68.80
2022-09-09T15:01:30.397Z,70.00
2022-09-09T15:04:03.747Z,70.50
2022-09-09T15:06:34.094Z,70.70
2022-09-09T15:09:01.987Z,68.50
2022-09-09T15:11:35.388Z,69.60
2022-09-09T15:14:02.201Z,68.90
2022-09-09T15:16:29.744Z,68.40
2022-09-09T15:18:58.548Z,70.00
2022-09-09T15:21:27.665Z,68.30
2022-09-09T15:23:54.720Z,68.00
2022-09-09T15:26:21.912Z,68.50
2022-09-09T15:28:50.747Z,68.50
2022-09-09T15:31:23.281Z,67.70
2022-09-09T15:33:52.052Z,67.90
2022-09-09T15:36:24.479Z,68.10
2022-09-09T15:38:52.246Z,68.20
2022-09-09T15:41:20.923Z,68.50
2022-09-09T15:43:50.950Z,70.70
2022-09-09T15:46:39.183Z,69.60
2022-09-09T15:49:11.811Z,73.30
2022-09-09T15:51:47.152Z,71.60
2022-09-09T15:54:17.848Z,70.20
2022-09-09T15:56:46.493Z,71.30
2022-09-09T15:59:13.472Z,71.70
2022-09-09T16:01:40.727Z,72.60
2022-09-09T16:04:07.610Z,73.60
2022-09-09T16:06:34.869Z,72.00
2022-09-09T16:09:05.326Z,72.10
2022-09-09T16:11:37.842Z,71.80
2022-09-09T16:14:06.396Z,71.80
2022-09-09T16:16:33.981Z,72.30
2022-09-09T16:19:06.689Z,73.40
2022-09-09T16:21:45.327Z,74.70
2022-09-09T16:24:15.373Z,74.30
2022-09-09T16:26:46.262Z,75.10
2022-09-09T16:29:15.342Z,76.20
2022-09-09T16:31:42.704Z,75.20
2022-09-09T16:34:10.479Z,76.50
2022-09-09T16:36:40.150Z,77.50
2022-09-09T16:39:12.934Z,78.20
2022-09-09T16:41:41.134Z,79.80
2022-09-09T16:44:10.132Z,80.40
2022-09-09T16:46:40.235Z,82.50
2022-09-09T16:49:09.856Z,84.10
2022-09-09T16:51:48.480Z,83.60
2022-09-09T16:54:18.093Z,86.00
2022-09-09T16:56:47.563Z,85.50
2022-09-09T16:59:20.075Z,84.90
2022-09-09T17:01:49.729Z,84.70
2022-09-09T17:04:26.444Z,85.40
2022-09-09T17:06:55.267Z,87.90
2022-09-09T17:09:24.402Z,84.30
2022-09-09T17:11:52.517Z,84.40
2022-09-09T17:14:21.506Z,84.20
2022-09-09T17:16:48.372Z,85.00
2022-09-09T17:19:18.802Z,83.80
2022-09-09T17:22:15.681Z,84.60
2022-09-09T17:24:35.399Z,81.50
2022-09-09T17:27:03.284Z,80.50
2022-09-09T17:29:30.361Z,80.60
2022-09-09T17:31:57.524Z,80.50
2022-09-09T17:34:25.174Z,80.90
2022-09-09T17:36:53.254Z,83.30
2022-09-09T17:39:20.154Z,82.30
2022-09-09T17:41:47.074Z,82.40
2022-09-09T17:44:14.039Z,84.70
2022-09-09T17:46:43.157Z,86.00
2022-09-09T17:49:15.021Z,87.10
2022-09-09T17:51:43.259Z,88.60
2022-09-09T17:54:13.520Z,90.10
2022-09-09T17:56:42.273Z,91.10
2022-09-09T17:59:10.370Z,91.70
2022-09-09T18:01:40.433Z,92.30
2022-09-09T18:04:09.828Z,93.90
2022-09-09T18:06:43.184Z,94.90
2022-09-09T18:09:13.425Z,96.80
2022-09-09T18:11:46.674Z,98.50
2022-09-09T18:14:20.269Z,99.90
2022-09-09T18:16:47.659Z,99.90
2022-09-09T18:19:17.517Z,99.90
2022-09-09T18:21:44.989Z,99.90
2022-09-09T18:24:13.590Z,99.90
2022-09-09T18:26:41.512Z,99.90
2022-09-09T18:29:11.537Z,99.90
2022-09-09T18:31:38.555Z,99.90
2022-09-09T18:34:09.993Z,99.90
2022-09-09T18:36:56.058Z,99.90
2022-09-09T18:39:28.881Z,99.90
2022-09-09T18:42:00.384Z,99.90
2022-09-09T18:44:30.429Z,99.90
2022-09-09T18:46:57.950Z,99.90
2022-09-09T18:49:26.477Z,99.90
2022-09-09T18:51:53.871Z,99.90
2022-09-09T18:54:24.120Z,99.90
2022-09-09T18:56:51.700Z,99.90
2022-09-09T18:59:20.649Z,99.90
2022-09-09T19:01:51.999Z,99.90
2022-09-09T19:04:21.192Z,99.90
2022-09-09T19:06:48.590Z,99.90
2022-09-09T19:09:17.851Z,99.90
2022-09-09T19:11:45.682Z,99.90
2022-09-09T19:14:16.526Z,99.90
2022-09-09T19:16:45.278Z,99.90
2022-09-09T19:19:15.598Z,99.90
2022-09-09T19:21:43.718Z,99.90
2022-09-09T19:24:23.562Z,99.90
2022-09-09T19:26:52.420Z,99.90
2022-09-09T19:29:24.890Z,99.90
2022-09-09T19:32:36.391Z,99.90
2022-09-09T19:34:41.878Z,99.90
2022-09-09T19:37:08.714Z,99.90
2022-09-09T19:39:36.741Z,99.90
2022-09-09T19:42:03.738Z,99.90
2022-09-09T19:44:30.558Z,99.90
2022-09-09T19:46:59.592Z,99.90
2022-09-09T19:49:26.697Z,99.90
2022-09-09T19:51:55.178Z,99.90
2022-09-09T19:54:22.352Z,99.90
2022-09-09T19:56:49.153Z,99.90
2022-09-09T19:59:18.973Z,99.90
2022-09-09T20:01:45.923Z,99.90
2022-09-09T20:04:14.731Z,99.90
2022-09-09T20:06:44.150Z,99.90
2022-09-09T20:09:14.613Z,99.90
2022-09-09T20:11:42.313Z,99.90
2022-09-09T20:14:09.998Z,99.90
2022-09-09T20:16:36.830Z,99.90
2022-09-09T20:19:06.713Z,99.90
2022-09-09T20:21:36.212Z,99.90
2022-09-09T20:24:06.141Z,99.90
2022-09-09T20:26:35.207Z,99.90
2022-09-09T20:29:05.515Z,99.90
2022-09-09T20:31:36.438Z,99.90
2022-09-09T20:34:04.260Z,99.90
2022-09-09T20:36:33.821Z,99.90
2022-09-09T20:39:08.240Z,99.90
2022-09-09T20:41:37.036Z,99.90
2022-09-09T20:44:12.322Z,99.90
2022-09-09T20:46:42.616Z,99.90
2022-09-09T20:49:10.789Z,99.90
2022-09-09T20:51:38.210Z,99.90
2022-09-09T20:54:11.913Z,99.90
2022-09-09T20:56:41.007Z,99.90
2022-09-09T20:59:11.535Z,99.90
2022-09-09T21:01:39.109Z,99.90
2022-09-09T21:04:07.057Z,99.90
2022-09-09T21:06:33.955Z,99.90
2022-09-09T21:09:00.765Z,99.90
2022-09-09T21:11:27.552Z,99.90
2022-09-09T21:13:55.098Z,99.90
2022-09-09T21:16:22.163Z,99.90
2022-09-09T21:18:49.966Z,99.90
2022-09-09T21:21:19.274Z,99.90
2022-09-09T21:23:46.780Z,99.90
2022-09-09T21:26:13.586Z,99.90
2022-09-09T21:28:40.538Z,99.90
2022-09-09T21:31:07.412Z,99.90
2022-09-09T21:33:34.774Z,99.90
2022-09-09T21:36:09.295Z,99.90
2022-09-09T21:38:36.274Z,99.90
2022-09-09T21:41:15.459Z,99.90
2022-09-09T21:43:43.676Z,99.90
2022-09-09T21:46:14.359Z,99.90
2022-09-09T21:48:41.812Z,99.90
2022-09-09T21:51:14.731Z,99.90
2022-09-09T21:53:41.828Z,99.90
2022-09-09T21:56:12.601Z,99.90
2022-09-09T21:58:41.355Z,99.90
2022-09-09T22:01:12.083Z,99.90
2022-09-09T22:03:39.725Z,99.90
2022-09-09T22:06:08.528Z,99.90
2022-09-09T22:08:36.415Z,99.90
2022-09-09T22:11:14.080Z,99.90
2022-09-09T22:13:42.573Z,99.90
2022-09-09T22:16:12.188Z,99.90
2022-09-09T22:18:39.814Z,99.90
2022-09-09T22:21:09.259Z,99.90
2022-09-09T22:23:36.751Z,99.90
2022-09-09T22:26:05.030Z,99.90
2022-09-09T22:28:33.819Z,99.90
2022-09-09T22:31:01.003Z,99.90
2022-09-09T22:33:28.114Z,99.90
2022-09-09T22:35:55.090Z,99.90
2022-09-09T22:38:22.374Z,99.90
2022-09-09T22:40:49.600Z,99.90
2022-09-09T22:43:19.502Z,99.90
2022-09-09T22:45:47.070Z,99.90
2022-09-09T22:48:15.981Z,99.90
2022-09-09T22:50:43.063Z,99.90
2022-09-09T22:53:14.268Z,99.90
2022-09-09T22:55:42.168Z,99.90
2022-09-09T22:58:09.779Z,99.90
2022-09-09T23:00:41.122Z,99.90
2022-09-09T23:03:08.336Z,99.90
2022-09-09T23:05:35.285Z,99.90
2022-09-09T23:08:02.293Z,99.90
2022-09-09T23:10:29.331Z,99.90
2022-09-09T23:12:56.695Z,99.90
2022-09-09T23:15:24.044Z,99.90
2022-09-09T23:17:52.182Z,99.90
2022-09-09T23:20:22.212Z,99.90
2022-09-09T23:22:49.016Z,99.90
2022-09-09T23:25:15.812Z,99.90
2022-09-09T23:27:42.652Z,99.90
2022-09-09T23:30:11.651Z,99.90
2022-09-09T23:32:38.913Z,99.90
2022-09-09T23:35:07.550Z,99.90
2022-09-09T23:37:34.693Z,99.90
2022-09-09T23:40:01.800Z,99.90
2022-09-09T23:42:33.419Z,99.90
2022-09-09T23:45:00.326Z,99.90
2022-09-09T23:47:28.299Z,99.90
2022-09-09T23:49:55.124Z,99.90
2022-09-09T23:52:23.370Z,99.90
2022-09-09T23:54:50.144Z,99.90
2022-09-09T23:57:16.971Z,99.90
2022-09-09T23:59:43.743Z,99.90
